createdAt,value
2023-05-20T00:00:00.941Z,65.26
2023-05-20T00:01:01.084Z,65.26
2023-05-20T00:02:01.283Z,65.20
2023-05-20T00:03:01.480Z,65.27
2023-05-20T00:04:01.633Z,65.19
2023-05-20T00:05:01.676Z,65.34
2023-05-20T00:06:01.730Z,65.52
2023-05-20T00:07:01.836Z,65.57
2023-05-20T00:08:01.945Z,65.43
2023-05-20T00:09:02.098Z,65.44
2023-05-20T00:10:02.230Z,65.49
2023-05-20T00:11:02.341Z,65.81
2023-05-20T00:12:02.394Z,65.73
2023-05-20T00:13:02.517Z,66.08
2023-05-20T00:14:02.641Z,66.11
2023-05-20T00:15:02.763Z,66.46
2023-05-20T00:16:03.004Z,66.19
2023-05-20T00:17:03.101Z,65.99
2023-05-20T00:18:03.268Z,66.01
2023-05-20T00:19:03.404Z,65.89
2023-05-20T00:20:03.505Z,65.74
2023-05-20T00:21:03.640Z,65.66
2023-05-20T00:22:03.767Z,65.66
2023-05-20T00:23:03.873Z,65.97
2023-05-20T00:24:03.949Z,66.10
2023-05-20T00:25:04.079Z,66.34
2023-05-20T00:26:04.190Z,66.27
2023-05-20T00:27:04.319Z,66.26
2023-05-20T00:28:04.425Z,66.33
2023-05-20T00:29:04.551Z,66.26
2023-05-20T00:30:04.671Z,66.26
2023-05-20T00:31:04.847Z,66.35
2023-05-20T00:32:04.949Z,66.29
2023-05-20T00:33:05.105Z,66.47
2023-05-20T00:34:05.149Z,66.58
2023-05-20T00:35:05.367Z,66.81
2023-05-20T00:36:05.397Z,67.25
2023-05-20T00:37:05.578Z,67.28
2023-05-20T00:38:05.746Z,67.13
2023-05-20T00:39:05.911Z,67.27
2023-05-20T00:40:06.041Z,67.23
2023-05-20T00:41:06.166Z,67.18
2023-05-20T00:42:06.279Z,67.06
2023-05-20T00:43:06.449Z,67.04
2023-05-20T00:44:06.585Z,67.01
2023-05-20T00:45:06.733Z,66.88
2023-05-20T00:46:06.929Z,66.92
2023-05-20T00:47:07.028Z,66.81
2023-05-20T00:48:07.307Z,66.73
2023-05-20T00:49:07.372Z,66.68
2023-05-20T00:50:07.553Z,66.87
2023-05-20T00:51:07.729Z,66.75
2023-05-20T00:52:07.800Z,66.68
2023-05-20T00:53:07.957Z,66.65
2023-05-20T00:54:08.064Z,66.61
2023-05-20T00:55:08.205Z,66.62
2023-05-20T00:56:08.289Z,66.60
2023-05-20T00:57:08.396Z,66.61
2023-05-20T00:58:08.535Z,66.69
2023-05-20T00:59:08.641Z,66.77
2023-05-20T01:00:08.753Z,66.72
2023-05-20T01:01:08.884Z,66.64
2023-05-20T01:02:09.049Z,66.58
2023-05-20T01:03:09.208Z,66.58
2023-05-20T01:04:09.295Z,66.52
2023-05-20T01:05:09.453Z,66.75
2023-05-20T01:06:09.599Z,66.63
2023-05-20T01:07:09.760Z,66.51
2023-05-20T01:08:09.938Z,66.73
2023-05-20T01:09:10.099Z,66.62
2023-05-20T01:10:10.216Z,66.57
2023-05-20T01:11:10.379Z,66.50
2023-05-20T01:12:10.509Z,66.64
2023-05-20T01:13:10.693Z,66.63
2023-05-20T01:14:10.849Z,66.75
2023-05-20T01:15:11.094Z,66.96
2023-05-20T01:16:11.204Z,66.73
2023-05-20T01:17:11.325Z,66.75
2023-05-20T01:18:11.548Z,66.86
2023-05-20T01:19:11.734Z,66.77
2023-05-20T01:20:11.861Z,66.95
2023-05-20T01:21:12.005Z,67.13
2023-05-20T01:22:12.142Z,67.14
2023-05-20T01:23:12.302Z,67.07
2023-05-20T01:24:12.542Z,67.40
2023-05-20T01:25:12.653Z,67.41
2023-05-20T01:26:12.816Z,67.62
2023-05-20T01:27:12.989Z,67.85
2023-05-20T01:28:13.171Z,67.88
2023-05-20T01:29:13.299Z,67.72
2023-05-20T01:30:13.503Z,67.78
2023-05-20T01:31:13.650Z,68.22
2023-05-20T01:32:13.814Z,68.55
2023-05-20T01:33:13.981Z,68.13
2023-05-20T01:34:14.090Z,68.03
2023-05-20T01:35:14.259Z,67.99
2023-05-20T01:36:14.451Z,67.95
2023-05-20T01:37:14.585Z,68.40
2023-05-20T01:38:14.779Z,68.19
2023-05-20T01:39:14.852Z,68.11
2023-05-20T01:40:14.985Z,68.05
2023-05-20T01:41:15.114Z,67.93
2023-05-20T01:42:15.215Z,67.86
2023-05-20T01:43:17.430Z,68.74
2023-05-20T01:44:15.452Z,69.01
2023-05-20T01:45:15.675Z,68.83
2023-05-20T01:46:15.763Z,68.61
2023-05-20T01:47:15.813Z,68.52
2023-05-20T01:48:16.018Z,68.63
2023-05-20T01:49:16.174Z,68.42
2023-05-20T01:50:16.354Z,68.36
2023-05-20T01:51:16.509Z,68.26
2023-05-20T01:52:16.609Z,68.19
2023-05-20T01:53:16.758Z,68.27
2023-05-20T01:54:16.893Z,68.24
2023-05-20T01:55:17.013Z,68.22
2023-05-20T01:56:17.158Z,68.02
2023-05-20T01:57:17.278Z,67.97
2023-05-20T01:58:17.431Z,67.90
2023-05-20T01:59:17.600Z,68.04
2023-05-20T02:00:17.709Z,68.01
2023-05-20T02:01:17.942Z,68.03
2023-05-20T02:02:18.060Z,68.38
2023-05-20T02:03:18.200Z,68.26
2023-05-20T02:04:18.229Z,68.16
2023-05-20T02:05:18.452Z,68.17
2023-05-20T02:06:18.499Z,68.03
2023-05-20T02:07:18.604Z,68.01
2023-05-20T02:08:18.724Z,68.01
2023-05-20T02:09:18.830Z,67.99
2023-05-20T02:10:18.961Z,67.96
2023-05-20T02:11:19.056Z,67.89
2023-05-20T02:12:19.161Z,67.86
2023-05-20T02:13:19.321Z,67.82
2023-05-20T02:14:19.466Z,68.03
2023-05-20T02:15:19.541Z,68.04
2023-05-20T02:16:19.705Z,67.97
2023-05-20T02:17:19.796Z,67.98
2023-05-20T02:18:19.928Z,67.99
2023-05-20T02:19:20.160Z,68.02
2023-05-20T02:20:20.221Z,68.17
2023-05-20T02:21:20.305Z,68.17
2023-05-20T02:22:20.439Z,68.29
2023-05-20T02:23:20.554Z,68.49
2023-05-20T02:24:20.689Z,68.58
2023-05-20T02:25:20.824Z,68.73
2023-05-20T02:26:20.968Z,68.55
2023-05-20T02:27:21.100Z,68.49
2023-05-20T02:28:21.305Z,68.41
2023-05-20T02:29:21.440Z,68.38
2023-05-20T02:30:21.593Z,68.50
2023-05-20T02:31:21.767Z,68.54
2023-05-20T02:32:21.943Z,68.73
2023-05-20T02:33:22.091Z,68.86
2023-05-20T02:34:22.255Z,68.84
2023-05-20T02:35:22.418Z,69.09
2023-05-20T02:36:22.580Z,69.06
2023-05-20T02:37:22.703Z,68.99
2023-05-20T02:38:22.894Z,68.79
2023-05-20T02:39:23.097Z,69.00
2023-05-20T02:40:23.207Z,68.84
2023-05-20T02:41:23.330Z,68.88
2023-05-20T02:42:23.462Z,68.91
2023-05-20T02:43:23.620Z,68.80
2023-05-20T02:44:23.706Z,68.62
2023-05-20T02:45:23.827Z,68.63
2023-05-20T02:46:23.953Z,68.64
2023-05-20T02:47:24.110Z,68.44
2023-05-20T02:48:24.194Z,68.35
2023-05-20T02:49:24.355Z,68.32
2023-05-20T02:50:24.435Z,68.33
2023-05-20T02:51:24.694Z,68.19
2023-05-20T02:52:24.685Z,68.06
2023-05-20T02:53:24.808Z,68.42
2023-05-20T02:54:25.544Z,68.32
2023-05-20T02:55:25.060Z,68.19
2023-05-20T02:56:25.233Z,68.14
2023-05-20T02:57:25.347Z,68.11
2023-05-20T02:58:25.492Z,68.01
2023-05-20T02:59:25.655Z,68.04
2023-05-20T03:00:25.766Z,67.98
2023-05-20T03:01:25.971Z,68.12
2023-05-20T03:02:26.057Z,68.03
2023-05-20T03:03:26.228Z,68.04
2023-05-20T03:04:26.535Z,68.01
2023-05-20T03:05:26.594Z,67.82
2023-05-20T03:06:26.897Z,67.70
2023-05-20T03:07:26.950Z,67.78
2023-05-20T03:08:27.109Z,67.72
2023-05-20T03:09:27.251Z,67.94
2023-05-20T03:10:27.375Z,67.92
2023-05-20T03:11:27.564Z,68.07
2023-05-20T03:12:27.706Z,67.74
2023-05-20T03:13:28.061Z,67.88
2023-05-20T03:14:28.081Z,67.49
2023-05-20T03:15:28.223Z,67.55
2023-05-20T03:16:28.608Z,67.41
2023-05-20T03:17:28.673Z,68.47
2023-05-20T03:18:28.798Z,68.71
2023-05-20T03:19:29.169Z,68.26
2023-05-20T03:20:29.146Z,68.21
2023-05-20T03:21:29.314Z,67.85
2023-05-20T03:22:29.460Z,67.92
2023-05-20T03:23:29.671Z,67.81
2023-05-20T03:24:29.795Z,67.90
2023-05-20T03:25:29.958Z,67.73
2023-05-20T03:26:30.124Z,67.67
2023-05-20T03:27:30.276Z,67.76
2023-05-20T03:28:30.418Z,67.59
2023-05-20T03:29:30.591Z,67.41
2023-05-20T03:30:30.714Z,67.39
2023-05-20T03:31:30.926Z,67.35
2023-05-20T03:32:31.057Z,67.32
2023-05-20T03:33:31.200Z,67.17
2023-05-20T03:34:31.327Z,67.15
2023-05-20T03:35:31.531Z,67.03
2023-05-20T03:36:31.605Z,67.05
2023-05-20T03:37:31.726Z,67.01
2023-05-20T03:38:31.872Z,66.79
2023-05-20T03:39:32.008Z,66.61
2023-05-20T03:40:32.171Z,66.53
2023-05-20T03:41:32.294Z,66.91
2023-05-20T03:42:32.471Z,67.27
2023-05-20T03:43:32.651Z,67.35
2023-05-20T03:44:32.796Z,67.34
2023-05-20T03:45:33.082Z,67.21
2023-05-20T03:46:33.147Z,67.26
2023-05-20T03:47:33.386Z,67.23
2023-05-20T03:48:33.497Z,66.88
2023-05-20T03:49:33.650Z,66.74
2023-05-20T03:50:33.851Z,66.77
2023-05-20T03:51:33.959Z,66.41
2023-05-20T03:52:34.096Z,66.45
2023-05-20T03:53:34.241Z,66.45
2023-05-20T03:54:34.405Z,66.37
2023-05-20T03:55:34.769Z,66.59
2023-05-20T03:56:34.722Z,66.56
2023-05-20T03:57:34.891Z,67.14
2023-05-20T03:58:35.089Z,67.10
2023-05-20T03:59:35.237Z,67.06
2023-05-20T04:00:35.444Z,66.17
2023-05-20T04:01:35.654Z,65.79
2023-05-20T04:02:35.861Z,65.46
2023-05-20T04:03:36.051Z,65.36
2023-05-20T04:04:36.072Z,65.87
2023-05-20T04:05:36.373Z,65.66
2023-05-20T04:06:36.439Z,65.97
2023-05-20T04:07:36.575Z,65.84
2023-05-20T04:08:36.781Z,65.56
2023-05-20T04:09:36.903Z,65.26
2023-05-20T04:10:37.040Z,65.88
2023-05-20T04:11:37.218Z,65.77
2023-05-20T04:12:37.373Z,65.86
2023-05-20T04:13:37.480Z,65.64
2023-05-20T04:14:37.581Z,65.48
2023-05-20T04:15:37.696Z,65.22
2023-05-20T04:16:37.846Z,64.99
2023-05-20T04:17:37.949Z,64.61
2023-05-20T04:18:38.037Z,64.51
2023-05-20T04:19:38.237Z,64.29
2023-05-20T04:20:38.237Z,64.20
2023-05-20T04:21:38.344Z,64.14
2023-05-20T04:22:38.444Z,63.95
2023-05-20T04:23:38.553Z,63.89
2023-05-20T04:24:38.660Z,64.40
2023-05-20T04:25:39.000Z,63.93
2023-05-20T04:26:38.863Z,63.67
2023-05-20T04:27:38.964Z,63.40
2023-05-20T04:28:39.134Z,62.99
2023-05-20T04:29:39.245Z,62.61
2023-05-20T04:30:39.424Z,62.28
2023-05-20T04:31:39.609Z,61.96
2023-05-20T04:32:39.719Z,61.94
2023-05-20T04:33:39.871Z,62.07
2023-05-20T04:34:40.622Z,61.80
2023-05-20T04:35:40.114Z,61.69
2023-05-20T04:36:40.284Z,61.64
2023-05-20T04:37:40.458Z,61.24
2023-05-20T04:38:40.630Z,61.30
2023-05-20T04:39:40.834Z,61.50
2023-05-20T04:40:40.920Z,61.41
2023-05-20T04:41:41.041Z,61.42
2023-05-20T04:42:41.128Z,61.33
2023-05-20T04:43:41.219Z,61.25
2023-05-20T04:44:42.438Z,60.72
2023-05-20T04:45:41.431Z,60.42
2023-05-20T04:46:41.531Z,60.47
2023-05-20T04:47:41.677Z,60.56
2023-05-20T04:48:41.754Z,60.26
2023-05-20T04:49:41.831Z,60.32
2023-05-20T04:50:42.011Z,60.35
2023-05-20T04:51:42.025Z,60.36
2023-05-20T04:52:42.115Z,59.99
2023-05-20T04:53:43.584Z,59.52
2023-05-20T04:54:42.391Z,59.57
2023-05-20T04:55:42.514Z,59.12
2023-05-20T04:56:42.653Z,59.05
2023-05-20T04:57:42.928Z,60.51
2023-05-20T04:58:42.925Z,60.49
2023-05-20T04:59:43.068Z,60.33
2023-05-20T05:00:43.196Z,60.36
2023-05-20T05:01:43.345Z,60.22
2023-05-20T05:02:43.470Z,60.16
2023-05-20T05:03:43.539Z,59.93
2023-05-20T05:04:43.676Z,59.86
2023-05-20T05:05:43.781Z,60.13
2023-05-20T05:06:43.869Z,60.34
2023-05-20T05:07:43.988Z,59.96
2023-05-20T05:08:44.095Z,59.40
2023-05-20T05:09:44.192Z,58.86
2023-05-20T05:10:44.318Z,58.36
2023-05-20T05:11:44.452Z,59.05
2023-05-20T05:12:44.642Z,59.12
2023-05-20T05:13:44.731Z,58.99
2023-05-20T05:14:44.861Z,58.17
2023-05-20T05:15:45.016Z,57.90
2023-05-20T05:16:45.101Z,58.43
2023-05-20T05:17:45.275Z,58.42
2023-05-20T05:18:45.485Z,58.21
2023-05-20T05:19:45.543Z,57.98
2023-05-20T05:20:45.655Z,59.39
2023-05-20T05:21:45.784Z,60.21
2023-05-20T05:22:45.876Z,59.70
2023-05-20T05:23:45.962Z,59.71
2023-05-20T05:24:46.053Z,59.00
2023-05-20T05:25:46.142Z,58.65
2023-05-20T05:26:46.288Z,58.43
2023-05-20T05:27:46.361Z,57.85
2023-05-20T05:28:46.493Z,57.93
2023-05-20T05:29:46.658Z,58.24
2023-05-20T05:30:46.843Z,57.91
2023-05-20T05:31:46.967Z,57.42
2023-05-20T05:32:47.133Z,57.36
2023-05-20T05:33:47.284Z,57.33
2023-05-20T05:34:48.085Z,57.14
2023-05-20T05:35:47.328Z,57.11
2023-05-20T05:36:47.562Z,56.85
2023-05-20T05:37:48.100Z,57.15
2023-05-20T05:38:47.588Z,56.43
2023-05-20T05:39:47.670Z,56.55
2023-05-20T05:40:47.743Z,56.35
2023-05-20T05:41:47.825Z,56.52
2023-05-20T05:42:48.587Z,56.61
2023-05-20T05:43:48.044Z,56.56
2023-05-20T05:44:48.120Z,56.67
2023-05-20T05:45:48.209Z,56.51
2023-05-20T05:46:48.418Z,56.83
2023-05-20T05:47:48.462Z,56.19
2023-05-20T05:48:48.498Z,56.69
2023-05-20T05:49:49.591Z,56.47
2023-05-20T05:50:48.712Z,56.26
2023-05-20T05:51:48.821Z,56.61
2023-05-20T05:52:49.621Z,56.34
2023-05-20T05:53:49.057Z,56.38
2023-05-20T05:54:49.186Z,56.91
2023-05-20T05:55:49.322Z,56.89
2023-05-20T05:56:49.482Z,57.40
2023-05-20T05:57:49.577Z,57.30
2023-05-20T05:58:49.712Z,57.43
2023-05-20T05:59:49.851Z,57.31
2023-05-20T06:00:50.021Z,57.30
2023-05-20T06:01:50.083Z,57.19
2023-05-20T06:02:50.428Z,57.65
2023-05-20T06:03:50.383Z,57.32
2023-05-20T06:04:50.418Z,57.32
2023-05-20T06:05:50.675Z,57.65
2023-05-20T06:06:50.711Z,58.06
2023-05-20T06:07:50.837Z,57.39
2023-05-20T06:08:50.999Z,57.46
2023-05-20T06:09:51.158Z,56.96
2023-05-20T06:10:51.304Z,57.12
2023-05-20T06:11:51.433Z,56.67
2023-05-20T06:12:51.609Z,56.86
2023-05-20T06:13:51.745Z,56.55
2023-05-20T06:14:51.814Z,57.05
2023-05-20T06:15:51.995Z,57.29
2023-05-20T06:16:52.158Z,57.03
2023-05-20T06:17:52.301Z,56.79
2023-05-20T06:18:52.423Z,56.66
2023-05-20T06:19:52.508Z,56.70
2023-05-20T06:20:52.592Z,56.31
2023-05-20T06:21:52.735Z,56.38
2023-05-20T06:22:52.861Z,56.42
2023-05-20T06:23:52.992Z,56.09
2023-05-20T06:24:53.093Z,55.83
2023-05-20T06:25:53.232Z,55.42
2023-05-20T06:26:53.365Z,55.76
2023-05-20T06:27:53.508Z,55.59
2023-05-20T06:28:53.679Z,55.74
2023-05-20T06:29:53.870Z,55.56
2023-05-20T06:30:53.949Z,55.32
2023-05-20T06:31:54.638Z,55.39
2023-05-20T06:32:55.199Z,55.26
2023-05-20T06:33:54.291Z,54.89
2023-05-20T06:34:54.367Z,54.86
2023-05-20T06:35:54.517Z,53.95
2023-05-20T06:36:54.661Z,54.02
2023-05-20T06:37:54.808Z,54.10
2023-05-20T06:38:54.857Z,54.30
2023-05-20T06:39:54.974Z,54.11
2023-05-20T06:40:55.137Z,54.26
2023-05-20T06:41:55.275Z,54.01
2023-05-20T06:42:55.395Z,53.98
2023-05-20T06:43:55.506Z,54.11
2023-05-20T06:44:55.579Z,53.40
2023-05-20T06:45:55.745Z,53.11
2023-05-20T06:46:55.918Z,52.29
2023-05-20T06:47:55.888Z,52.29
2023-05-20T06:48:55.988Z,51.80
2023-05-20T06:49:56.080Z,51.69
2023-05-20T06:50:56.197Z,51.23
2023-05-20T06:51:56.282Z,50.94
2023-05-20T06:52:56.402Z,51.14
2023-05-20T06:53:56.512Z,50.15
2023-05-20T06:54:56.572Z,49.30
2023-05-20T06:55:56.701Z,49.60
2023-05-20T06:56:56.776Z,48.76
2023-05-20T06:57:56.894Z,48.96
2023-05-20T06:58:57.033Z,48.25
2023-05-20T06:59:57.085Z,48.55
2023-05-20T07:00:57.155Z,49.11
2023-05-20T07:01:57.388Z,48.75
2023-05-20T07:02:57.409Z,49.53
2023-05-20T07:03:57.561Z,48.88
2023-05-20T07:04:57.592Z,49.08
2023-05-20T07:05:57.697Z,48.98
2023-05-20T07:06:57.865Z,48.75
2023-05-20T07:07:57.908Z,48.10
2023-05-20T07:08:58.018Z,47.92
2023-05-20T07:09:58.081Z,48.18
2023-05-20T07:10:58.300Z,47.98
2023-05-20T07:11:58.302Z,47.85
2023-05-20T07:12:58.437Z,47.37
2023-05-20T07:13:58.585Z,47.86
2023-05-20T07:14:58.662Z,48.70
2023-05-20T07:15:58.947Z,48.28
2023-05-20T07:16:58.925Z,48.70
2023-05-20T07:17:59.050Z,47.90
2023-05-20T07:18:59.280Z,47.63
2023-05-20T07:19:59.251Z,47.45
2023-05-20T07:20:59.443Z,47.17
2023-05-20T07:21:59.540Z,47.04
2023-05-20T07:22:59.704Z,47.08
2023-05-20T07:23:59.672Z,47.34
2023-05-20T07:24:59.806Z,46.66
2023-05-20T07:25:59.877Z,47.25
2023-05-20T07:26:59.988Z,47.25
2023-05-20T07:28:00.172Z,46.82
2023-05-20T07:29:00.290Z,46.48
2023-05-20T07:30:00.352Z,46.44
2023-05-20T07:31:00.424Z,46.07
2023-05-20T07:32:00.647Z,46.52
2023-05-20T07:33:00.661Z,45.84
2023-05-20T07:34:00.639Z,46.16
2023-05-20T07:35:00.719Z,45.38
2023-05-20T07:36:00.791Z,45.45
2023-05-20T07:37:00.794Z,45.98
2023-05-20T07:38:00.915Z,45.88
2023-05-20T07:39:04.395Z,45.87
2023-05-20T07:40:01.923Z,45.03
2023-05-20T07:41:01.653Z,45.05
2023-05-20T07:42:01.058Z,44.63
2023-05-20T07:43:01.079Z,44.83
2023-05-20T07:44:01.130Z,44.18
2023-05-20T07:45:01.157Z,45.50
2023-05-20T07:46:01.250Z,44.84
2023-05-20T07:47:01.231Z,44.49
2023-05-20T07:48:01.352Z,44.06
2023-05-20T07:49:01.380Z,44.01
2023-05-20T07:50:01.434Z,43.80
2023-05-20T07:51:01.522Z,43.66
2023-05-20T07:52:03.014Z,43.72
2023-05-20T07:53:01.709Z,43.99
2023-05-20T07:54:01.769Z,43.83
2023-05-20T07:55:01.857Z,43.42
2023-05-20T07:56:01.971Z,43.05
2023-05-20T07:57:02.096Z,43.30
2023-05-20T07:58:02.166Z,43.45
2023-05-20T07:59:02.262Z,43.05
2023-05-20T08:00:02.359Z,43.11
2023-05-20T08:01:02.429Z,41.94
2023-05-20T08:02:02.555Z,42.51
2023-05-20T08:03:02.745Z,41.68
2023-05-20T08:04:02.785Z,41.71
2023-05-20T08:05:02.705Z,41.29
2023-05-20T08:06:02.757Z,41.27
2023-05-20T08:07:02.835Z,41.65
2023-05-20T08:08:02.901Z,41.34
2023-05-20T08:09:03.004Z,41.30
2023-05-20T08:10:03.095Z,41.27
2023-05-20T08:11:03.187Z,41.67
2023-05-20T08:12:03.296Z,41.31
2023-05-20T08:13:03.358Z,40.58
2023-05-20T08:14:03.458Z,41.46
2023-05-20T08:15:03.505Z,41.86
2023-05-20T08:16:03.576Z,40.71
2023-05-20T08:17:03.720Z,40.55
2023-05-20T08:18:03.781Z,41.57
2023-05-20T08:19:03.802Z,40.94
2023-05-20T08:20:03.853Z,41.30
2023-05-20T08:21:03.926Z,41.50
2023-05-20T08:22:04.013Z,40.85
2023-05-20T08:23:04.066Z,41.62
2023-05-20T08:24:04.173Z,41.64
2023-05-20T08:25:04.231Z,42.60
2023-05-20T08:26:04.303Z,42.27
2023-05-20T08:27:04.421Z,41.92
2023-05-20T08:28:04.497Z,43.70
2023-05-20T08:29:04.574Z,43.35
2023-05-20T08:30:04.656Z,42.86
2023-05-20T08:31:04.756Z,42.72
2023-05-20T08:32:04.786Z,43.02
2023-05-20T08:33:04.932Z,42.56
2023-05-20T08:34:04.948Z,43.45
2023-05-20T08:35:05.026Z,43.16
2023-05-20T08:36:05.136Z,43.04
2023-05-20T08:37:05.228Z,42.98
2023-05-20T08:38:05.374Z,43.44
2023-05-20T08:39:05.437Z,42.74
2023-05-20T08:40:05.531Z,41.97
2023-05-20T08:41:05.610Z,41.93
2023-05-20T08:42:05.683Z,42.43
2023-05-20T08:43:05.789Z,42.71
2023-05-20T08:44:05.895Z,42.27
2023-05-20T08:45:06.002Z,41.99
2023-05-20T08:46:06.115Z,41.72
2023-05-20T08:47:06.194Z,41.86
2023-05-20T08:48:06.351Z,41.60
2023-05-20T08:49:06.346Z,41.84
2023-05-20T08:50:06.426Z,42.18
2023-05-20T08:51:06.550Z,41.51
2023-05-20T08:52:06.613Z,41.00
2023-05-20T08:53:06.709Z,41.96
2023-05-20T08:54:06.832Z,41.63
2023-05-20T08:55:06.880Z,41.47
2023-05-20T08:56:07.004Z,41.51
2023-05-20T08:57:07.102Z,42.31
2023-05-20T08:58:07.229Z,41.50
2023-05-20T08:59:07.329Z,42.14
2023-05-20T09:00:07.449Z,42.90
2023-05-20T09:01:07.529Z,42.93
2023-05-20T09:02:07.688Z,42.33
2023-05-20T09:03:07.778Z,42.33
2023-05-20T09:04:07.922Z,41.69
2023-05-20T09:05:07.978Z,42.79
2023-05-20T09:06:08.035Z,43.06
2023-05-20T09:07:08.112Z,42.71
2023-05-20T09:08:08.272Z,42.85
2023-05-20T09:09:08.390Z,43.10
2023-05-20T09:10:08.481Z,43.20
2023-05-20T09:11:08.570Z,42.92
2023-05-20T09:12:08.695Z,43.60
2023-05-20T09:13:08.787Z,42.99
2023-05-20T09:14:08.919Z,43.01
2023-05-20T09:15:09.013Z,43.27
2023-05-20T09:16:09.132Z,43.53
2023-05-20T09:17:09.245Z,43.38
2023-05-20T09:18:09.428Z,43.12
2023-05-20T09:19:09.545Z,43.35
2023-05-20T09:20:09.574Z,42.63
2023-05-20T09:21:09.667Z,42.73
2023-05-20T09:22:09.731Z,42.69
2023-05-20T09:23:09.811Z,43.57
2023-05-20T09:24:09.935Z,42.95
2023-05-20T09:25:10.005Z,42.90
2023-05-20T09:26:10.145Z,42.36
2023-05-20T09:27:10.361Z,42.83
2023-05-20T09:28:10.350Z,42.97
2023-05-20T09:29:10.423Z,42.85
2023-05-20T09:30:10.508Z,43.23
2023-05-20T09:31:10.596Z,42.63
2023-05-20T09:32:10.759Z,43.21
2023-05-20T09:33:10.836Z,42.78
2023-05-20T09:34:10.898Z,43.04
2023-05-20T09:35:10.989Z,42.32
2023-05-20T09:36:11.096Z,42.85
2023-05-20T09:37:11.201Z,42.54
2023-05-20T09:38:11.290Z,42.50
2023-05-20T09:39:11.411Z,40.77
2023-05-20T09:40:11.527Z,41.20
2023-05-20T09:41:11.625Z,41.68
2023-05-20T09:42:11.723Z,40.55
2023-05-20T09:43:11.817Z,40.54
2023-05-20T09:44:11.886Z,40.69
2023-05-20T09:45:11.980Z,41.15
2023-05-20T09:46:12.073Z,40.43
2023-05-20T09:47:12.146Z,40.40
2023-05-20T09:48:12.293Z,40.26
2023-05-20T09:49:12.308Z,41.30
2023-05-20T09:50:12.396Z,39.83
2023-05-20T09:51:12.450Z,39.99
2023-05-20T09:52:12.551Z,40.14
2023-05-20T09:53:12.605Z,39.36
2023-05-20T09:54:12.706Z,39.42
2023-05-20T09:55:12.821Z,39.16
2023-05-20T09:56:12.886Z,39.46
2023-05-20T09:57:12.907Z,38.80
2023-05-20T09:58:14.798Z,38.57
2023-05-20T09:59:13.053Z,38.63
2023-05-20T10:00:13.084Z,39.05
2023-05-20T10:01:13.162Z,38.82
2023-05-20T10:02:13.198Z,38.90
2023-05-20T10:03:13.342Z,38.95
2023-05-20T10:04:13.288Z,38.71
2023-05-20T10:05:13.312Z,38.68
2023-05-20T10:06:13.334Z,39.17
2023-05-20T10:07:13.367Z,39.41
2023-05-20T10:08:13.425Z,39.59
2023-05-20T10:09:13.454Z,39.46
2023-05-20T10:10:13.492Z,39.83
2023-05-20T10:11:13.495Z,39.14
2023-05-20T10:12:13.529Z,38.78
2023-05-20T10:13:13.596Z,39.07
2023-05-20T10:14:13.615Z,39.23
2023-05-20T10:15:13.649Z,39.67
2023-05-20T10:16:13.794Z,39.15
2023-05-20T10:17:13.770Z,39.32
2023-05-20T10:18:13.829Z,39.57
2023-05-20T10:19:13.973Z,39.91
2023-05-20T10:20:13.923Z,39.50
2023-05-20T10:21:13.979Z,39.85
2023-05-20T10:22:14.018Z,39.20
2023-05-20T10:23:14.048Z,38.51
2023-05-20T10:24:14.084Z,39.66
2023-05-20T10:25:14.128Z,37.92
2023-05-20T10:26:14.130Z,37.53
2023-05-20T10:27:14.164Z,38.05
2023-05-20T10:28:14.174Z,37.97
2023-05-20T10:29:14.201Z,37.90
2023-05-20T10:30:14.251Z,37.26
2023-05-20T10:31:14.289Z,37.55
2023-05-20T10:32:14.338Z,37.35
2023-05-20T10:33:14.514Z,37.90
2023-05-20T10:34:14.458Z,38.44
2023-05-20T10:35:14.518Z,39.04
2023-05-20T10:36:14.583Z,38.32
2023-05-20T10:37:14.666Z,37.89
2023-05-20T10:38:14.729Z,37.96
2023-05-20T10:39:14.753Z,37.46
2023-05-20T10:40:14.837Z,37.48
2023-05-20T10:41:14.871Z,37.17
2023-05-20T10:42:14.891Z,38.18
2023-05-20T10:43:14.978Z,38.02
2023-05-20T10:44:15.020Z,37.78
2023-05-20T10:45:15.676Z,36.98
2023-05-20T10:46:21.845Z,37.21
2023-05-20T10:47:24.705Z,36.79
2023-05-20T10:48:16.213Z,36.60
2023-05-20T10:49:15.249Z,36.76
2023-05-20T10:50:15.217Z,36.87
2023-05-20T10:51:15.176Z,36.31
2023-05-20T10:52:15.186Z,36.76
2023-05-20T10:53:29.325Z,36.99
2023-05-20T10:54:16.278Z,38.46
2023-05-20T10:55:15.286Z,37.40
2023-05-20T10:56:15.315Z,38.08
2023-05-20T10:57:15.326Z,36.86
2023-05-20T10:58:15.389Z,37.68
2023-05-20T10:59:15.364Z,37.81
2023-05-20T11:00:15.428Z,36.80
2023-05-20T11:01:15.459Z,37.38
2023-05-20T11:02:15.461Z,37.50
2023-05-20T11:03:15.478Z,36.78
2023-05-20T11:04:15.518Z,36.63
2023-05-20T11:05:15.515Z,36.83
2023-05-20T11:06:16.825Z,37.23
2023-05-20T11:07:15.573Z,36.11
2023-05-20T11:08:27.666Z,36.46
2023-05-20T11:09:16.640Z,36.06
2023-05-20T11:10:15.718Z,35.19
2023-05-20T11:11:15.686Z,36.15
2023-05-20T11:12:17.354Z,35.83
2023-05-20T11:13:15.798Z,35.62
2023-05-20T11:14:15.755Z,35.18
2023-05-20T11:15:15.763Z,35.22
2023-05-20T11:16:15.795Z,35.20
2023-05-20T11:17:15.772Z,35.21
2023-05-20T11:18:18.432Z,35.28
2023-05-20T11:19:15.802Z,35.59
2023-05-20T11:20:15.832Z,36.29
2023-05-20T11:21:15.828Z,35.95
2023-05-20T11:22:15.858Z,35.84
2023-05-20T11:23:16.014Z,35.44
2023-05-20T11:24:15.921Z,35.63
2023-05-20T11:25:15.909Z,35.23
2023-05-20T11:26:15.939Z,35.90
2023-05-20T11:27:15.989Z,35.52
2023-05-20T11:28:15.988Z,35.78
2023-05-20T11:29:16.023Z,35.62
2023-05-20T11:30:16.094Z,36.41
2023-05-20T11:31:16.069Z,36.39
2023-05-20T11:32:16.122Z,36.51
2023-05-20T11:33:16.145Z,36.71
2023-05-20T11:34:16.138Z,37.03
2023-05-20T11:35:16.170Z,37.09
2023-05-20T11:36:26.900Z,36.32
2023-05-20T11:37:17.247Z,37.08
2023-05-20T11:38:16.241Z,37.63
2023-05-20T11:39:16.305Z,37.23
2023-05-20T11:40:16.334Z,36.45
2023-05-20T11:41:16.355Z,36.63
2023-05-20T11:42:16.365Z,37.09
2023-05-20T11:43:16.396Z,37.15
2023-05-20T11:44:16.463Z,37.28
2023-05-20T11:45:16.504Z,37.07
2023-05-20T11:46:16.515Z,37.26
2023-05-20T11:47:17.746Z,36.99
2023-05-20T11:48:16.514Z,37.77
2023-05-20T11:49:16.542Z,38.17
2023-05-20T11:50:16.530Z,37.42
2023-05-20T11:51:16.579Z,37.50
2023-05-20T11:52:16.575Z,37.89
2023-05-20T11:53:16.615Z,37.86
2023-05-20T11:54:16.630Z,38.98
2023-05-20T11:55:16.656Z,38.90
2023-05-20T11:56:16.670Z,38.57
2023-05-20T11:57:16.720Z,38.61
2023-05-20T11:58:16.744Z,38.94
2023-05-20T11:59:16.811Z,38.98
2023-05-20T12:00:16.796Z,38.55
2023-05-20T12:02:16.858Z,38.65
2023-05-20T12:03:17.090Z,37.80
2023-05-20T12:04:16.940Z,38.22
2023-05-20T12:05:16.928Z,38.68
2023-05-20T12:06:16.983Z,38.61
2023-05-20T12:07:17.000Z,38.48
2023-05-20T12:08:17.032Z,37.91
2023-05-20T12:09:17.073Z,38.10
2023-05-20T12:10:17.184Z,37.54
2023-05-20T12:11:17.102Z,38.13
2023-05-20T12:12:17.119Z,38.62
2023-05-20T12:13:17.162Z,38.59
2023-05-20T12:14:17.231Z,38.65
2023-05-20T12:15:17.213Z,37.75
2023-05-20T12:16:17.318Z,37.88
2023-05-20T12:17:17.282Z,38.42
2023-05-20T12:18:17.325Z,37.48
2023-05-20T12:19:17.432Z,37.64
2023-05-20T12:20:17.406Z,37.90
2023-05-20T12:21:17.469Z,37.18
2023-05-20T12:22:17.562Z,37.83
2023-05-20T12:23:17.543Z,37.80
2023-05-20T12:24:17.571Z,37.73
2023-05-20T12:25:17.602Z,37.30
2023-05-20T12:26:17.638Z,37.50
2023-05-20T12:27:17.677Z,37.63
2023-05-20T12:28:17.748Z,37.68
2023-05-20T12:29:17.731Z,37.58
2023-05-20T12:30:17.736Z,37.57
2023-05-20T12:31:17.790Z,37.70
2023-05-20T12:32:17.802Z,37.74
2023-05-20T12:33:17.827Z,38.24
2023-05-20T12:34:17.863Z,37.81
2023-05-20T12:35:17.876Z,37.84
2023-05-20T12:36:17.898Z,37.31
2023-05-20T12:37:17.919Z,37.93
2023-05-20T12:38:17.975Z,37.41
2023-05-20T12:39:17.959Z,37.30
2023-05-20T12:40:17.976Z,37.02
2023-05-20T12:41:18.003Z,36.26
2023-05-20T12:42:18.063Z,36.91
2023-05-20T12:43:18.082Z,37.80
2023-05-20T12:44:18.113Z,37.01
2023-05-20T12:45:18.119Z,36.89
2023-05-20T12:46:18.129Z,37.30
2023-05-20T12:47:18.297Z,36.97
2023-05-20T12:48:18.180Z,36.90
2023-05-20T12:49:18.232Z,37.07
2023-05-20T12:50:18.354Z,37.24
2023-05-20T12:51:18.382Z,36.33
2023-05-20T12:52:22.356Z,36.92
2023-05-20T12:53:18.477Z,36.55
2023-05-20T12:54:18.500Z,37.46